createdAt,value
2017-04-24T00:00:44.928Z,6.18
2017-04-24T00:01:44.877Z,6.10
2017-04-24T00:02:44.764Z,7.20
2017-04-24T00:03:44.641Z,5.97
2017-04-24T00:04:44.535Z,5.92
2017-04-24T00:05:45.260Z,6.10
2017-04-24T00:06:45.916Z,6.22
2017-04-24T00:07:45.886Z,6.28
2017-04-24T00:08:46.529Z,6.13
2017-04-24T00:09:46.476Z,6.55
2017-04-24T00:10:46.370Z,7.03
2017-04-24T00:11:46.267Z,7.40
2017-04-24T00:12:46.189Z,6.02
2017-04-24T00:13:46.130Z,7.10
2017-04-24T00:14:46.034Z,6.98
2017-04-24T00:15:46.667Z,6.75
2017-04-24T00:16:46.610Z,6.55
2017-04-24T00:17:46.494Z,7.63
2017-04-24T00:18:46.390Z,7.05
2017-04-24T00:19:46.266Z,6.47
2017-04-24T00:20:46.191Z,6.85
2017-04-24T00:21:46.865Z,7.83
2017-04-24T00:22:46.757Z,6.32
2017-04-24T00:23:46.626Z,6.88
2017-04-24T00:24:47.246Z,6.97
2017-04-24T00:25:47.154Z,6.87
2017-04-24T00:26:47.091Z,7.42
2017-04-24T00:27:46.977Z,6.17
2017-04-24T00:28:46.866Z,7.97
2017-04-24T00:29:46.770Z,6.70
2017-04-24T00:30:47.390Z,7.18
2017-04-24T00:31:47.398Z,6.77
2017-04-24T00:32:47.377Z,7.40
2017-04-24T00:33:48.022Z,6.12
2017-04-24T00:34:47.918Z,8.37
2017-04-24T00:35:48.542Z,6.82
2017-04-24T00:36:48.529Z,6.75
2017-04-24T00:37:48.409Z,7.82
2017-04-24T00:38:48.274Z,6.97
2017-04-24T00:39:48.147Z,6.18
2017-04-24T00:40:48.033Z,6.97
2017-04-24T00:41:47.959Z,7.75
2017-04-24T00:42:48.590Z,7.55
2017-04-24T00:43:49.237Z,7.55
2017-04-24T00:44:49.160Z,7.35
2017-04-24T00:45:49.093Z,9.33
2017-04-24T00:46:49.049Z,7.60
2017-04-24T00:47:48.969Z,7.00
2017-04-24T00:48:48.875Z,7.60
2017-04-24T00:49:48.743Z,7.32
2017-04-24T00:50:49.379Z,9.08
2017-04-24T00:51:49.311Z,7.57
2017-04-24T00:52:49.243Z,8.40
2017-04-24T00:53:49.189Z,7.77
2017-04-24T00:54:49.117Z,8.42
2017-04-24T00:55:49.010Z,7.75
2017-04-24T00:56:48.944Z,8.25
2017-04-24T00:57:48.813Z,7.15
2017-04-24T00:58:49.363Z,8.78
2017-04-24T00:59:49.268Z,7.32
2017-04-24T01:00:49.186Z,7.82
2017-04-24T01:01:49.140Z,8.32
2017-04-24T01:02:49.050Z,7.10
2017-04-24T01:03:48.936Z,8.15
2017-04-24T01:04:49.556Z,8.47
2017-04-24T01:05:50.240Z,7.78
2017-04-24T01:06:50.188Z,7.63
2017-04-24T01:07:50.069Z,7.93
2017-04-24T01:08:50.011Z,8.72
2017-04-24T01:09:49.901Z,7.65
2017-04-24T01:10:49.802Z,9.10
2017-04-24T01:11:50.493Z,8.18
2017-04-24T01:12:50.433Z,8.15
2017-04-24T01:13:50.441Z,8.05
2017-04-24T01:14:50.344Z,8.12
2017-04-24T01:15:50.309Z,9.22
2017-04-24T01:16:50.546Z,9.05
2017-04-24T01:17:50.337Z,9.50
2017-04-24T01:18:50.967Z,8.07
2017-04-24T01:19:51.622Z,8.12
2017-04-24T01:20:51.561Z,8.72
2017-04-24T01:21:51.477Z,9.05
2017-04-24T01:22:51.384Z,9.33
2017-04-24T01:23:51.294Z,9.87
2017-04-24T01:24:51.476Z,10.62
2017-04-24T01:25:51.277Z,10.28
2017-04-24T01:26:51.302Z,9.93
2017-04-24T01:27:51.232Z,10.72
2017-04-24T01:28:51.886Z,10.82
2017-04-24T01:29:51.824Z,10.20
2017-04-24T01:30:51.731Z,9.30
2017-04-24T01:31:52.404Z,9.18
2017-04-24T01:32:52.309Z,10.63
2017-04-24T01:33:52.237Z,11.38
2017-04-24T01:34:52.130Z,10.70
2017-04-24T01:35:52.057Z,11.07
2017-04-24T01:36:51.999Z,10.38
2017-04-24T01:37:51.902Z,10.35
2017-04-24T01:38:51.837Z,10.97
2017-04-24T01:39:51.721Z,10.37
2017-04-24T01:40:52.467Z,11.88
2017-04-24T01:41:53.122Z,10.73
2017-04-24T01:42:53.012Z,11.27
2017-04-24T01:43:52.904Z,11.28
2017-04-24T01:44:52.820Z,10.85
2017-04-24T01:45:52.752Z,11.52
2017-04-24T01:46:52.682Z,11.25
2017-04-24T01:47:53.333Z,11.65
2017-04-24T01:48:53.261Z,12.38
2017-04-24T01:49:53.722Z,11.33
2017-04-24T01:50:54.342Z,10.97
2017-04-24T01:51:54.253Z,10.60
2017-04-24T01:52:54.933Z,13.67
2017-04-24T01:53:54.849Z,11.27
2017-04-24T01:54:54.730Z,12.10
2017-04-24T01:55:54.606Z,12.33
2017-04-24T01:56:54.493Z,11.68
2017-04-24T01:57:54.416Z,11.62
2017-04-24T01:58:54.306Z,11.72
2017-04-24T01:59:54.981Z,11.15
2017-04-24T02:00:54.880Z,11.43
2017-04-24T02:01:54.781Z,11.23
2017-04-24T02:02:54.771Z,11.65
2017-04-24T02:03:54.695Z,11.83
2017-04-24T02:04:54.597Z,11.80
2017-04-24T02:05:54.494Z,11.45
2017-04-24T02:06:54.381Z,10.80
2017-04-24T02:07:54.352Z,9.08
2017-04-24T02:08:54.236Z,12.43
2017-04-24T02:09:54.229Z,11.58
2017-04-24T02:10:54.145Z,11.67
2017-04-24T02:11:54.105Z,11.87
2017-04-24T02:12:54.089Z,12.23
2017-04-24T02:13:54.745Z,10.95
2017-04-24T02:14:54.639Z,11.92
2017-04-24T02:15:54.553Z,11.52
2017-04-24T02:16:54.458Z,12.18
2017-04-24T02:17:54.361Z,12.17
2017-04-24T02:18:54.297Z,12.18
2017-04-24T02:19:54.212Z,11.20
2017-04-24T02:20:54.121Z,11.62
2017-04-24T02:21:54.068Z,11.72
2017-04-24T02:22:54.077Z,12.23
2017-04-24T02:23:54.742Z,13.32
2017-04-24T02:24:54.687Z,11.52
2017-04-24T02:25:55.380Z,12.97
2017-04-24T02:26:55.282Z,12.47
2017-04-24T02:27:55.238Z,12.60
2017-04-24T02:28:55.143Z,11.58
2017-04-24T02:29:55.057Z,12.88
2017-04-24T02:30:54.999Z,13.85
2017-04-24T02:31:54.914Z,12.18
2017-04-24T02:32:54.830Z,12.10
2017-04-24T02:33:55.494Z,12.45
2017-04-24T02:34:55.434Z,12.97
2017-04-24T02:35:55.314Z,12.45
2017-04-24T02:36:55.206Z,12.40
2017-04-24T02:37:55.124Z,12.58
2017-04-24T02:38:55.151Z,12.67
2017-04-24T02:39:55.096Z,13.03
2017-04-24T02:40:54.986Z,12.15
2017-04-24T02:41:55.784Z,12.78
2017-04-24T02:42:55.692Z,11.73
2017-04-24T02:43:55.621Z,12.82
2017-04-24T02:44:56.261Z,13.20
2017-04-24T02:45:56.919Z,12.48
2017-04-24T02:46:56.829Z,12.85
2017-04-24T02:47:56.796Z,13.75
2017-04-24T02:48:56.741Z,12.27
2017-04-24T02:49:56.658Z,12.77
2017-04-24T02:50:56.575Z,12.85
2017-04-24T02:51:56.502Z,13.57
2017-04-24T02:52:56.405Z,12.13
2017-04-24T02:53:57.082Z,12.90
2017-04-24T02:54:57.754Z,12.53
2017-04-24T02:55:58.393Z,12.73
2017-04-24T02:56:58.282Z,13.03
2017-04-24T02:57:59.005Z,12.63
2017-04-24T02:58:59.673Z,12.80
2017-04-24T02:59:59.591Z,12.55
2017-04-24T03:01:00.249Z,11.90
2017-04-24T03:02:01.112Z,13.23
2017-04-24T03:03:01.037Z,14.25
2017-04-24T03:04:00.938Z,13.45
2017-04-24T03:05:01.613Z,13.43
2017-04-24T03:06:01.514Z,12.52
2017-04-24T03:07:02.153Z,12.80
2017-04-24T03:08:02.086Z,12.05
2017-04-24T03:09:01.980Z,13.27
2017-04-24T03:10:01.881Z,10.18
2017-04-24T03:11:01.897Z,12.07
2017-04-24T03:12:01.790Z,13.12
2017-04-24T03:13:01.701Z,12.10
2017-04-24T03:14:01.600Z,11.25
2017-04-24T03:15:01.489Z,13.10
2017-04-24T03:16:01.428Z,12.60
2017-04-24T03:17:01.361Z,13.22
2017-04-24T03:18:01.270Z,12.15
2017-04-24T03:19:01.224Z,12.87
2017-04-24T03:20:01.138Z,12.93
2017-04-24T03:21:01.119Z,12.45
2017-04-24T03:22:01.772Z,12.77
2017-04-24T03:23:01.650Z,12.90
2017-04-24T03:24:01.605Z,12.45
2017-04-24T03:25:02.244Z,13.75
2017-04-24T03:26:02.872Z,12.40
2017-04-24T03:27:03.523Z,13.17
2017-04-24T03:28:03.429Z,12.95
2017-04-24T03:29:03.381Z,11.65
2017-04-24T03:30:03.285Z,13.65
2017-04-24T03:31:03.218Z,13.02
2017-04-24T03:32:03.866Z,12.80
2017-04-24T03:33:03.753Z,13.78
2017-04-24T03:34:03.662Z,12.07
2017-04-24T03:35:03.601Z,12.13
2017-04-24T03:36:03.506Z,14.75
2017-04-24T03:37:03.391Z,13.68
2017-04-24T03:38:03.265Z,12.92
2017-04-24T03:39:04.216Z,12.33
2017-04-24T03:40:04.137Z,13.58
2017-04-24T03:41:04.032Z,11.60
2017-04-24T03:42:03.937Z,11.20
2017-04-24T03:43:03.831Z,12.28
2017-04-24T03:44:03.744Z,12.62
2017-04-24T03:45:03.681Z,12.28
2017-04-24T03:46:03.608Z,11.03
2017-04-24T03:47:04.278Z,12.17
2017-04-24T03:48:04.181Z,12.73
2017-04-24T03:49:04.076Z,11.98
2017-04-24T03:50:04.000Z,12.13
2017-04-24T03:51:03.895Z,12.23
2017-04-24T03:52:03.785Z,12.30
2017-04-24T03:53:03.686Z,11.87
2017-04-24T03:54:03.604Z,12.70
2017-04-24T03:55:03.532Z,12.73
2017-04-24T03:56:03.433Z,11.37
2017-04-24T03:57:03.319Z,11.78
2017-04-24T03:58:03.206Z,12.52
2017-04-24T03:59:02.317Z,12.68
2017-04-24T04:00:02.300Z,9.57
2017-04-24T04:01:02.918Z,12.70
2017-04-24T04:02:02.812Z,12.35
2017-04-24T04:03:02.734Z,12.55
2017-04-24T04:04:02.617Z,14.37
2017-04-24T04:05:02.696Z,13.22
2017-04-24T04:06:02.566Z,12.43
2017-04-24T04:07:02.493Z,11.73
2017-04-24T04:08:02.555Z,12.80
2017-04-24T04:09:02.478Z,12.97
2017-04-24T04:10:02.394Z,10.50
2017-04-24T04:11:02.322Z,13.52
2017-04-24T04:12:02.222Z,11.63
2017-04-24T04:13:02.151Z,12.10
2017-04-24T04:14:02.841Z,12.45
2017-04-24T04:15:02.790Z,12.48
2017-04-24T04:16:03.467Z,12.25
2017-04-24T04:17:06.645Z,9.12
2017-04-24T04:18:06.563Z,11.42
2017-04-24T04:19:06.491Z,11.00
2017-04-24T04:20:07.190Z,12.30
2017-04-24T04:21:07.118Z,12.35
2017-04-24T04:22:07.079Z,12.50
2017-04-24T04:23:07.054Z,10.48
2017-04-24T04:24:07.065Z,12.00
2017-04-24T04:25:07.738Z,11.68
2017-04-24T04:26:07.732Z,11.23
2017-04-24T04:27:07.657Z,11.17
2017-04-24T04:28:07.578Z,11.52
2017-04-24T04:29:07.504Z,11.63
2017-04-24T04:30:07.453Z,11.78
2017-04-24T04:31:08.185Z,11.17
2017-04-24T04:32:08.216Z,12.30
2017-04-24T04:33:08.869Z,10.20
2017-04-24T04:34:08.874Z,11.70
2017-04-24T04:35:09.513Z,11.20
2017-04-24T04:36:09.487Z,11.53
2017-04-24T04:37:10.132Z,12.47
2017-04-24T04:38:10.069Z,11.30
2017-04-24T04:39:09.977Z,10.67
2017-04-24T04:40:09.923Z,10.37
2017-04-24T04:41:10.633Z,11.05
2017-04-24T04:42:10.567Z,10.03
2017-04-24T04:43:10.517Z,11.30
2017-04-24T04:44:10.450Z,10.68
2017-04-24T04:45:10.354Z,9.62
2017-04-24T04:46:10.336Z,11.53
2017-04-24T04:47:10.237Z,8.37
2017-04-24T04:48:10.145Z,10.65
2017-04-24T04:49:10.084Z,9.53
2017-04-24T04:50:10.761Z,11.07
2017-04-24T04:51:10.726Z,11.40
2017-04-24T04:52:10.631Z,11.12
2017-04-24T04:53:10.667Z,11.50
2017-04-24T04:54:10.608Z,10.30
2017-04-24T04:55:10.562Z,11.40
2017-04-24T04:56:10.477Z,9.12
2017-04-24T04:57:10.406Z,11.50
2017-04-24T04:58:10.361Z,9.27
2017-04-24T04:59:11.005Z,10.75
2017-04-24T05:00:10.961Z,9.33
2017-04-24T05:01:10.892Z,10.42
2017-04-24T05:02:10.833Z,8.65
2017-04-24T05:03:11.320Z,10.80
2017-04-24T05:04:11.957Z,10.62
2017-04-24T05:05:11.885Z,11.67
2017-04-24T05:06:11.797Z,9.75
2017-04-24T05:07:11.737Z,11.08
2017-04-24T05:08:12.417Z,10.02
2017-04-24T05:09:12.362Z,10.47
2017-04-24T05:10:13.689Z,8.93
2017-04-24T05:11:13.653Z,10.97
2017-04-24T05:12:13.609Z,11.87
2017-04-24T05:13:14.266Z,11.17
2017-04-24T05:14:14.166Z,11.33
2017-04-24T05:15:14.081Z,11.30
2017-04-24T05:16:13.985Z,11.43
2017-04-24T05:17:13.948Z,11.70
2017-04-24T05:18:13.982Z,11.80
2017-04-24T05:19:14.621Z,10.47
2017-04-24T05:20:14.534Z,11.63
2017-04-24T05:21:14.481Z,11.02
2017-04-24T05:22:15.213Z,7.48
2017-04-24T05:23:15.910Z,10.40
2017-04-24T05:24:15.846Z,9.35
2017-04-24T05:25:16.570Z,11.08
2017-04-24T05:26:17.213Z,11.53
2017-04-24T05:27:17.180Z,11.27
2017-04-24T05:28:17.122Z,9.98
2017-04-24T05:29:17.756Z,9.55
2017-04-24T05:30:17.693Z,10.27
2017-04-24T05:31:17.625Z,10.88
2017-04-24T05:32:18.359Z,10.38
2017-04-24T05:33:19.004Z,11.30
2017-04-24T05:34:18.956Z,9.22
2017-04-24T05:35:18.873Z,9.48
2017-04-24T05:36:18.777Z,9.83
2017-04-24T05:37:18.738Z,8.72
2017-04-24T05:38:18.629Z,9.00
2017-04-24T05:39:18.549Z,9.48
2017-04-24T05:40:18.462Z,8.90
2017-04-24T05:41:18.388Z,6.78
2017-04-24T05:42:18.317Z,9.38
2017-04-24T05:43:19.010Z,8.87
2017-04-24T05:44:18.950Z,8.75
2017-04-24T05:45:19.617Z,8.70
2017-04-24T05:46:19.525Z,9.20
2017-04-24T05:47:19.444Z,8.97
2017-04-24T05:48:19.354Z,7.90
2017-04-24T05:49:19.409Z,9.17
2017-04-24T05:50:20.031Z,9.47
2017-04-24T05:51:19.954Z,7.15
2017-04-24T05:52:19.906Z,8.15
2017-04-24T05:53:19.819Z,8.32
2017-04-24T05:54:19.721Z,7.77
2017-04-24T05:55:20.576Z,9.00
2017-04-24T05:56:21.241Z,8.55
2017-04-24T05:57:21.199Z,9.03
2017-04-24T05:58:21.835Z,8.95
2017-04-24T05:59:21.746Z,10.48
2017-04-24T06:00:21.669Z,7.77
2017-04-24T06:01:21.596Z,9.45
2017-04-24T06:02:21.569Z,5.50
2017-04-24T06:03:25.109Z,10.30
2017-04-24T06:04:25.781Z,8.90
2017-04-24T06:05:25.700Z,9.58
2017-04-24T06:06:25.772Z,8.43
2017-04-24T06:07:25.712Z,9.67
2017-04-24T06:08:25.681Z,9.20
2017-04-24T06:09:25.694Z,9.00
2017-04-24T06:10:26.377Z,8.80
2017-04-24T06:11:26.604Z,8.43
2017-04-24T06:12:26.445Z,8.52
2017-04-24T06:13:26.433Z,9.80
2017-04-24T06:14:27.104Z,9.68
2017-04-24T06:15:27.026Z,9.67
2017-04-24T06:16:27.664Z,10.45
2017-04-24T06:17:28.365Z,10.25
2017-04-24T06:18:28.279Z,10.27
2017-04-24T06:19:29.136Z,9.07
2017-04-24T06:20:30.163Z,8.92
2017-04-24T06:21:30.785Z,9.18
2017-04-24T06:22:30.726Z,10.37
2017-04-24T06:23:30.670Z,9.12
2017-04-24T06:24:31.318Z,9.27
2017-04-24T06:25:31.244Z,9.98
2017-04-24T06:26:31.186Z,9.75
2017-04-24T06:27:31.321Z,9.38
2017-04-24T06:28:31.974Z,8.98
2017-04-24T06:29:31.874Z,9.00
2017-04-24T06:30:31.781Z,9.22
2017-04-24T06:31:31.706Z,8.90
2017-04-24T06:32:31.839Z,8.37
2017-04-24T06:33:31.786Z,9.05
2017-04-24T06:34:31.702Z,9.17
2017-04-24T06:35:31.627Z,9.32
2017-04-24T06:36:31.562Z,8.73
2017-04-24T06:37:31.545Z,8.52
2017-04-24T06:38:31.489Z,8.60
2017-04-24T06:39:32.198Z,8.80
2017-04-24T06:40:32.142Z,8.48
2017-04-24T06:41:32.841Z,8.13
2017-04-24T06:42:33.573Z,6.22
2017-04-24T06:43:34.211Z,8.50
2017-04-24T06:44:39.377Z,7.95
2017-04-24T06:45:39.337Z,8.25
2017-04-24T06:46:39.993Z,8.95
2017-04-24T06:47:39.926Z,7.82
2017-04-24T06:48:39.841Z,8.07
2017-04-24T06:49:39.764Z,8.50
2017-04-24T06:50:40.444Z,7.93
2017-04-24T06:51:40.349Z,8.88
2017-04-24T06:52:40.294Z,7.35
2017-04-24T06:53:41.614Z,9.22
2017-04-24T06:59:49.076Z,8.58
2017-04-24T07:00:48.977Z,7.55
2017-04-24T07:01:49.296Z,7.92
2017-04-24T07:02:50.556Z,6.83
2017-04-24T07:03:50.459Z,8.48
2017-04-24T07:04:50.373Z,8.53
2017-04-24T07:05:50.293Z,8.27
2017-04-24T07:06:50.238Z,5.73
2017-04-24T07:07:50.238Z,8.13
2017-04-24T07:08:50.925Z,7.12
2017-04-24T07:09:50.833Z,6.97
2017-04-24T07:10:50.730Z,7.43
2017-04-24T07:11:50.660Z,7.73
2017-04-24T07:12:51.334Z,7.42
2017-04-24T07:13:51.265Z,7.83
2017-04-24T07:14:51.195Z,6.98
2017-04-24T07:15:51.841Z,7.48
2017-04-24T07:16:51.756Z,7.90
2017-04-24T07:17:51.669Z,6.45
2017-04-24T07:18:52.609Z,8.00
2017-04-24T07:19:52.509Z,7.62
2017-04-24T07:20:52.453Z,7.25
2017-04-24T07:21:53.101Z,7.68
2017-04-24T07:22:53.037Z,9.28
2017-04-24T07:23:52.974Z,8.13
2017-04-24T07:24:52.894Z,7.82
2017-04-24T07:25:53.545Z,7.48
2017-04-24T07:26:53.786Z,8.45
2017-04-24T07:27:53.716Z,7.70
2017-04-24T07:28:53.637Z,7.68
2017-04-24T07:29:54.308Z,7.33
2017-04-24T07:30:54.222Z,7.25
2017-04-24T07:31:54.124Z,7.20
2017-04-24T07:32:54.089Z,8.05
2017-04-24T07:33:54.099Z,7.85
2017-04-24T07:34:54.725Z,7.30
2017-04-24T07:35:58.864Z,7.32
2017-04-24T07:36:58.865Z,7.90
2017-04-24T07:37:58.801Z,7.92
2017-04-24T07:38:58.781Z,8.28
2017-04-24T07:39:58.700Z,9.02
2017-04-24T07:40:58.629Z,5.83
2017-04-24T07:41:59.284Z,7.80
2017-04-24T07:42:59.254Z,7.48
2017-04-24T07:43:59.914Z,7.33
2017-04-24T07:44:59.874Z,7.87
2017-04-24T07:45:59.776Z,8.07
2017-04-24T07:47:00.532Z,7.73
2017-04-24T07:48:00.481Z,6.65
2017-04-24T07:49:00.872Z,8.77
2017-04-24T07:50:00.800Z,8.07
2017-04-24T07:51:00.867Z,8.80
2017-04-24T07:52:01.513Z,8.27
2017-04-24T07:53:01.541Z,8.40
2017-04-24T07:54:01.501Z,7.12
2017-04-24T07:55:02.138Z,7.65
2017-04-24T07:56:02.050Z,9.23
2017-04-24T07:57:01.931Z,8.07
2017-04-24T07:58:01.881Z,7.40
2017-04-24T07:59:01.837Z,8.37
2017-04-24T08:00:01.744Z,8.20
2017-04-24T08:01:02.457Z,8.92
2017-04-24T08:02:03.129Z,7.93
2017-04-24T08:03:03.053Z,8.47
2017-04-24T08:04:02.988Z,8.18
2017-04-24T08:05:03.702Z,8.87
2017-04-24T08:06:04.397Z,9.43
2017-04-24T08:07:04.309Z,8.55
2017-04-24T08:08:04.318Z,8.55
2017-04-24T08:09:04.338Z,7.52
2017-04-24T08:10:04.247Z,8.68
2017-04-24T08:11:04.878Z,7.25
2017-04-24T08:12:05.841Z,8.22
2017-04-24T08:13:05.770Z,8.68
2017-04-24T08:14:05.702Z,8.25
2017-04-24T08:15:05.601Z,7.80
2017-04-24T08:16:05.581Z,7.83
2017-04-24T08:17:05.545Z,8.15
2017-04-24T08:18:06.250Z,6.33
2017-04-24T08:19:06.901Z,7.63
2017-04-24T08:20:06.805Z,8.78
2017-04-24T08:21:06.697Z,8.38
2017-04-24T08:22:06.761Z,8.52
2017-04-24T08:23:06.719Z,6.50
2017-04-24T08:24:06.615Z,8.00
2017-04-24T08:25:07.259Z,6.95
2017-04-24T08:26:07.209Z,7.80
2017-04-24T08:27:07.185Z,6.52
2017-04-24T08:28:07.149Z,8.03
2017-04-24T08:29:07.813Z,8.05
2017-04-24T08:30:07.880Z,7.32
2017-04-24T08:31:07.893Z,7.95
2017-04-24T08:32:08.542Z,8.33
2017-04-24T08:33:08.534Z,9.38
2017-04-24T08:34:08.433Z,8.43
2017-04-24T08:35:08.340Z,7.43
2017-04-24T08:36:08.245Z,8.40
2017-04-24T08:37:08.145Z,8.47
2017-04-24T08:38:08.066Z,8.43
2017-04-24T08:39:08.013Z,8.63
2017-04-24T08:40:07.916Z,7.23
2017-04-24T08:41:07.832Z,8.57
2017-04-24T08:42:08.490Z,8.20
2017-04-24T08:43:08.630Z,8.67
2017-04-24T08:44:08.558Z,8.55
2017-04-24T08:45:09.222Z,8.67
2017-04-24T08:46:09.100Z,8.37
2017-04-24T08:47:10.091Z,7.28
2017-04-24T08:48:09.998Z,9.13
2017-04-24T08:49:10.604Z,7.62
2017-04-24T08:50:10.509Z,7.52
2017-04-24T08:51:10.484Z,7.62
2017-04-24T08:52:10.439Z,7.90
2017-04-24T08:53:10.409Z,7.78
2017-04-24T08:54:10.335Z,7.00
2017-04-24T08:55:10.255Z,7.82
2017-04-24T08:56:10.172Z,5.87
2017-04-24T08:57:10.077Z,6.58
2017-04-24T08:58:09.982Z,7.72
2017-04-24T08:59:09.919Z,7.43
2017-04-24T09:00:10.584Z,7.25
2017-04-24T09:01:10.504Z,7.78
2017-04-24T09:02:10.490Z,5.55
2017-04-24T09:03:10.437Z,8.17
2017-04-24T09:04:11.113Z,7.97
2017-04-24T09:05:11.228Z,6.32
2017-04-24T09:06:11.130Z,7.05
2017-04-24T09:07:11.052Z,7.88
2017-04-24T09:08:10.950Z,7.85
2017-04-24T09:09:10.880Z,7.88
2017-04-24T09:10:10.761Z,7.63
2017-04-24T09:11:10.685Z,7.13
2017-04-24T09:12:10.598Z,8.08
2017-04-24T09:13:10.481Z,7.52
2017-04-24T09:14:10.418Z,7.30
2017-04-24T09:15:11.057Z,7.93
2017-04-24T09:16:10.932Z,5.88
2017-04-24T09:17:11.595Z,8.22
2017-04-24T09:18:11.480Z,7.60
2017-04-24T09:19:12.114Z,7.23
2017-04-24T09:20:12.112Z,8.68
2017-04-24T09:21:12.709Z,7.80
2017-04-24T09:22:13.351Z,7.98
2017-04-24T09:23:13.967Z,6.70
2017-04-24T09:24:14.635Z,6.82
2017-04-24T09:25:14.548Z,6.97
2017-04-24T09:26:14.507Z,7.52
2017-04-24T09:27:15.139Z,6.03
2017-04-24T09:28:15.134Z,6.68
2017-04-24T09:29:15.826Z,7.63
2017-04-24T09:30:16.517Z,7.17
2017-04-24T09:31:16.452Z,8.70
2017-04-24T09:32:16.433Z,7.87
2017-04-24T09:33:16.330Z,7.17
2017-04-24T09:34:16.336Z,7.75
2017-04-24T09:35:16.217Z,6.58
2017-04-24T09:36:16.098Z,7.17
2017-04-24T09:37:16.710Z,6.90
2017-04-24T09:38:17.386Z,7.77
2017-04-24T09:39:17.321Z,7.20
2017-04-24T09:40:17.217Z,6.65
2017-04-24T09:41:17.136Z,5.78
2017-04-24T09:42:17.009Z,6.67
2017-04-24T09:43:16.933Z,6.95
2017-04-24T09:44:16.845Z,6.15
2017-04-24T09:45:16.712Z,6.13
2017-04-24T09:46:16.633Z,5.25
2017-04-24T09:47:16.527Z,7.18
2017-04-24T09:48:16.381Z,7.40
2017-04-24T09:49:17.025Z,6.45
2017-04-24T09:50:16.936Z,6.75
2017-04-24T09:51:17.333Z,6.40
2017-04-24T09:52:17.928Z,7.05
2017-04-24T09:53:18.577Z,7.77
2017-04-24T09:54:18.514Z,6.70
2017-04-24T09:55:18.423Z,6.77
2017-04-24T09:56:18.289Z,6.85
2017-04-24T09:57:18.206Z,6.62
2017-04-24T09:58:18.117Z,7.38
2017-04-24T09:59:18.045Z,7.18
2017-04-24T10:00:17.941Z,6.33
2017-04-24T10:01:17.848Z,7.13
2017-04-24T10:02:17.717Z,6.28
2017-04-24T10:03:17.619Z,5.97
2017-04-24T10:04:17.526Z,6.55
2017-04-24T10:05:17.434Z,6.60
2017-04-24T10:06:17.316Z,7.35
2017-04-24T10:07:17.932Z,6.82
2017-04-24T10:08:18.573Z,7.15
2017-04-24T10:09:19.208Z,7.25
2017-04-24T10:10:19.094Z,7.22
2017-04-24T10:11:19.719Z,7.73
2017-04-24T10:12:19.697Z,7.40
2017-04-24T10:13:19.573Z,8.00
2017-04-24T10:14:19.521Z,8.17
2017-04-24T10:15:20.224Z,8.18
2017-04-24T10:16:20.884Z,7.60
2017-04-24T10:17:20.824Z,7.55
2017-04-24T10:18:20.733Z,6.85
2017-04-24T10:19:20.675Z,6.78
2017-04-24T10:20:21.330Z,7.60
2017-04-24T10:21:21.309Z,7.28
2017-04-24T10:22:21.964Z,6.97
2017-04-24T10:23:21.874Z,7.07
2017-04-24T10:24:21.858Z,7.75
2017-04-24T10:25:21.768Z,6.87
2017-04-24T10:26:21.673Z,7.72
2017-04-24T10:27:22.272Z,7.77
2017-04-24T10:28:22.941Z,8.35
2017-04-24T10:29:22.923Z,7.50
2017-04-24T10:30:22.865Z,7.30
2017-04-24T10:31:23.310Z,8.85
2017-04-24T10:32:24.000Z,8.58
2017-04-24T10:33:23.910Z,6.97
2017-04-24T10:34:23.865Z,8.58
2017-04-24T10:35:23.889Z,8.73
2017-04-24T10:36:23.926Z,8.93
2017-04-24T10:37:23.821Z,8.55
2017-04-24T10:38:23.783Z,8.33
2017-04-24T10:39:24.685Z,8.37
2017-04-24T10:40:24.597Z,8.55
2017-04-24T10:41:25.335Z,9.07
2017-04-24T10:42:26.042Z,9.28
2017-04-24T10:43:26.773Z,9.05
2017-04-24T10:44:27.468Z,10.57
2017-04-24T10:45:27.416Z,9.35
2017-04-24T10:46:27.404Z,9.83
2017-04-24T10:47:28.053Z,9.35
2017-04-24T10:48:27.990Z,9.10
2017-04-24T10:49:27.957Z,9.52
2017-04-24T10:50:28.645Z,9.63
2017-04-24T10:51:28.533Z,8.78
2017-04-24T10:52:28.432Z,9.77
2017-04-24T10:53:28.420Z,9.22
2017-04-24T10:54:28.361Z,8.90
2017-04-24T10:55:28.348Z,8.60
2017-04-24T10:56:28.358Z,9.20
2017-04-24T10:57:28.338Z,9.50
2017-04-24T10:58:28.296Z,10.28
2017-04-24T10:59:28.985Z,9.78
2017-04-24T11:00:28.957Z,9.30
2017-04-24T11:01:28.908Z,10.37
2017-04-24T11:02:28.836Z,9.88
2017-04-24T11:03:29.529Z,9.87
2017-04-24T11:04:29.497Z,8.75
2017-04-24T11:05:29.425Z,8.87
2017-04-24T11:06:29.391Z,9.80
2017-04-24T11:07:29.334Z,10.42
2017-04-24T11:08:29.260Z,8.05
2017-04-24T11:09:29.230Z,10.05
2017-04-24T11:10:29.143Z,9.73
2017-04-24T11:11:29.144Z,10.57
2017-04-24T11:12:29.083Z,11.08
2017-04-24T11:13:29.009Z,9.45
2017-04-24T11:14:29.753Z,9.42
2017-04-24T11:15:29.748Z,9.13
2017-04-24T11:16:30.499Z,11.17
2017-04-24T11:17:31.227Z,9.45
2017-04-24T11:18:32.301Z,10.08
2017-04-24T11:19:32.342Z,7.55
2017-04-24T11:20:33.086Z,10.50
2017-04-24T11:21:33.717Z,10.58
2017-04-24T11:22:33.622Z,10.42
2017-04-24T11:23:33.528Z,10.93
2017-04-24T11:24:33.453Z,9.62
2017-04-24T11:25:33.357Z,9.92
2017-04-24T11:26:33.276Z,10.13
2017-04-24T11:27:33.234Z,10.03
2017-04-24T11:28:33.138Z,9.95
2017-04-24T11:29:33.050Z,10.85
2017-04-24T11:30:33.049Z,10.60
2017-04-24T11:31:33.772Z,10.12
2017-04-24T11:32:34.441Z,10.84
2017-04-24T11:33:34.365Z,9.12
2017-04-24T11:34:34.273Z,10.43
2017-04-24T11:35:34.962Z,9.05
2017-04-24T11:36:35.078Z,9.08
2017-04-24T11:37:34.981Z,10.28
2017-04-24T11:38:34.947Z,10.68
2017-04-24T11:39:34.886Z,10.35
2017-04-24T11:40:34.840Z,11.15
2017-04-24T11:41:35.496Z,11.20
2017-04-24T11:42:35.402Z,10.83
2017-04-24T11:43:35.299Z,10.90
2017-04-24T11:44:35.243Z,10.45
2017-04-24T11:45:35.376Z,10.58
2017-04-24T11:46:36.262Z,11.07
2017-04-24T11:47:36.171Z,10.17
2017-04-24T11:48:36.069Z,10.10
2017-04-24T11:49:36.014Z,10.38
2017-04-24T11:50:36.757Z,10.95
2017-04-24T11:51:37.378Z,10.70
2017-04-24T11:52:37.325Z,9.97
2017-04-24T11:53:37.295Z,11.08
2017-04-24T11:54:37.924Z,9.92
2017-04-24T11:55:38.162Z,10.52
2017-04-24T11:56:38.076Z,10.90
2017-04-24T11:57:38.046Z,12.12
2017-04-24T11:58:37.949Z,11.73
2017-04-24T11:59:37.854Z,10.95
2017-04-24T12:00:37.845Z,10.82
2017-04-24T12:01:37.750Z,10.50
2017-04-24T12:02:38.382Z,10.42
2017-04-24T12:03:38.311Z,11.47
2017-04-24T12:04:38.209Z,11.57
2017-04-24T12:05:38.160Z,11.85
2017-04-24T12:06:38.069Z,9.93
2017-04-24T12:07:38.799Z,11.33
2017-04-24T12:08:39.475Z,12.02
2017-04-24T12:09:39.974Z,10.80
2017-04-24T12:10:40.229Z,10.72
2017-04-24T12:11:40.672Z,10.50
2017-04-24T12:12:41.777Z,10.58
2017-04-24T12:13:41.739Z,10.73
2017-04-24T12:14:41.929Z,9.78
2017-04-24T12:15:42.660Z,10.95
2017-04-24T12:16:42.721Z,10.62
2017-04-24T12:17:42.802Z,10.20
2017-04-24T12:18:42.837Z,10.38
2017-04-24T12:19:42.930Z,10.87
2017-04-24T12:20:43.021Z,10.45
2017-04-24T12:21:43.165Z,9.35
2017-04-24T12:22:43.173Z,9.05
2017-04-24T12:23:44.098Z,8.77
2017-04-24T12:24:44.862Z,9.15
2017-04-24T12:25:44.837Z,9.50
2017-04-24T12:26:44.762Z,8.73
2017-04-24T12:27:45.419Z,9.80
2017-04-24T12:28:45.330Z,7.95
2017-04-24T12:29:45.265Z,9.50
2017-04-24T12:30:45.309Z,9.45
2017-04-24T12:31:46.021Z,9.70
2017-04-24T12:32:45.933Z,9.37
2017-04-24T12:33:46.675Z,9.30
2017-04-24T12:34:46.696Z,9.27
2017-04-24T12:35:46.917Z,10.02
2017-04-24T12:36:46.949Z,9.80
2017-04-24T12:37:46.990Z,9.50
2017-04-24T12:38:48.373Z,9.80
2017-04-24T12:39:48.869Z,9.30
2017-04-24T12:40:48.909Z,9.70
2017-04-24T12:41:48.955Z,9.77
2017-04-24T12:42:49.457Z,9.02
2017-04-24T12:43:50.135Z,9.50
2017-04-24T12:44:50.065Z,8.83
2017-04-24T12:45:50.044Z,9.28
2017-04-24T12:46:50.025Z,8.83
2017-04-24T12:47:53.203Z,8.77
2017-04-24T12:48:54.933Z,8.65
2017-04-24T12:49:56.828Z,8.65
2017-04-24T12:50:57.131Z,8.64
2017-04-24T12:51:58.218Z,9.12
2017-04-24T12:52:58.670Z,8.70
2017-04-24T12:53:59.362Z,10.77
2017-04-24T12:54:59.303Z,10.17
2017-04-24T12:55:59.274Z,8.90
2017-04-24T12:56:59.177Z,9.22
2017-04-24T12:57:59.145Z,9.70
2017-04-24T12:58:59.069Z,9.30
2017-04-24T12:59:59.001Z,7.67
2017-04-24T13:00:58.976Z,7.85
2017-04-24T13:02:00.050Z,6.88
2017-04-24T13:03:00.728Z,8.35
2017-04-24T13:04:00.632Z,8.27
2017-04-24T13:05:00.707Z,8.83
2017-04-24T13:06:01.365Z,9.05
2017-04-24T13:07:01.309Z,8.85
2017-04-24T13:08:02.281Z,7.38
2017-04-24T13:09:02.174Z,8.60
2017-04-24T13:10:02.078Z,7.93
2017-04-24T13:11:02.017Z,8.03
2017-04-24T13:12:01.961Z,7.75
2017-04-24T13:13:02.588Z,7.28
2017-04-24T13:14:03.253Z,7.53
2017-04-24T13:15:03.173Z,6.98
2017-04-24T13:16:03.128Z,7.58